sensor_id;sensor_type;location;lat;lon;timestamp;P1;durP1;ratioP1;P2;durP2;ratioP2
36815;SDS011;22760;51.910;4.474;2022-08-01T00:01:30;6.13;;;4.25;;
36815;SDS011;22760;51.910;4.474;2022-08-01T00:03:57;10.35;;;5.07;;
36815;SDS011;22760;51.910;4.474;2022-08-01T00:06:24;7.82;;;5.20;;
36815;SDS011;22760;51.910;4.474;2022-08-01T00:08:51;13.60;;;7.15;;
36815;SDS011;22760;51.910;4.474;2022-08-01T00:11:17;12.93;;;7.63;;
36815;SDS011;22760;51.910;4.474;2022-08-01T00:13:46;10.20;;;6.50;;
36815;SDS011;22760;51.910;4.474;2022-08-01T00:16:12;12.95;;;7.30;;
36815;SDS011;22760;51.910;4.474;2022-08-01T00:18:40;10.93;;;6.25;;
36815;SDS011;22760;51.910;4.474;2022-08-01T00:21:08;12.93;;;5.70;;
36815;SDS011;22760;51.910;4.474;2022-08-01T00:23:34;10.10;;;5.47;;
36815;SDS011;22760;51.910;4.474;2022-08-01T00:26:01;9.80;;;5.13;;
36815;SDS011;22760;51.910;4.474;2022-08-01T00:28:28;9.88;;;4.95;;
36815;SDS011;22760;51.910;4.474;2022-08-01T00:30:56;9.98;;;5.20;;
36815;SDS011;22760;51.910;4.474;2022-08-01T00:33:23;8.77;;;5.38;;
36815;SDS011;22760;51.910;4.474;2022-08-01T00:35:50;12.55;;;5.90;;
36815;SDS011;22760;51.910;4.474;2022-08-01T00:38:16;9.07;;;5.22;;
36815;SDS011;22760;51.910;4.474;2022-08-01T00:40:43;9.10;;;5.00;;
36815;SDS011;22760;51.910;4.474;2022-08-01T00:43:10;9.30;;;5.20;;
36815;SDS011;22760;51.910;4.474;2022-08-01T00:45:37;8.80;;;4.82;;
36815;SDS011;22760;51.910;4.474;2022-08-01T00:48:05;10.90;;;4.85;;
36815;SDS011;22760;51.910;4.474;2022-08-01T00:50:32;9.23;;;4.43;;
36815;SDS011;22760;51.910;4.474;2022-08-01T00:52:59;7.80;;;4.82;;
36815;SDS011;22760;51.910;4.474;2022-08-01T00:55:26;9.13;;;4.57;;
36815;SDS011;22760;51.910;4.474;2022-08-01T00:57:53;9.55;;;5.20;;
36815;SDS011;22760;51.910;4.474;2022-08-01T01:00:21;7.03;;;4.70;;
36815;SDS011;22760;51.910;4.474;2022-08-01T01:02:48;7.90;;;5.30;;
36815;SDS011;22760;51.910;4.474;2022-08-01T01:05:16;9.85;;;4.93;;
36815;SDS011;22760;51.910;4.474;2022-08-01T01:07:44;5.75;;;4.10;;
36815;SDS011;22760;51.910;4.474;2022-08-01T01:10:17;10.85;;;4.15;;
36815;SDS011;22760;51.910;4.474;2022-08-01T01:12:50;8.63;;;4.30;;
36815;SDS011;22760;51.910;4.474;2022-08-01T01:15:29;8.82;;;4.22;;
36815;SDS011;22760;51.910;4.474;2022-08-01T01:18:02;9.07;;;4.50;;
36815;SDS011;22760;51.910;4.474;2022-08-01T01:20:35;8.32;;;4.18;;
36815;SDS011;22760;51.910;4.474;2022-08-01T01:23:19;6.75;;;4.05;;
36815;SDS011;22760;51.910;4.474;2022-08-01T01:26:08;7.47;;;3.97;;
36815;SDS011;22760;51.910;4.474;2022-08-01T01:31:40;8.95;;;4.95;;
36815;SDS011;22760;51.910;4.474;2022-08-01T01:34:11;8.25;;;4.22;;
36815;SDS011;22760;51.910;4.474;2022-08-01T01:36:41;6.10;;;3.50;;
36815;SDS011;22760;51.910;4.474;2022-08-01T01:39:09;4.90;;;2.90;;
36815;SDS011;22760;51.910;4.474;2022-08-01T01:41:39;3.92;;;2.38;;
36815;SDS011;22760;51.910;4.474;2022-08-01T01:44:09;3.80;;;1.98;;
36815;SDS011;22760;51.910;4.474;2022-08-01T01:46:38;3.60;;;1.73;;
36815;SDS011;22760;51.910;4.474;2022-08-01T01:49:06;3.80;;;2.13;;
36815;SDS011;22760;51.910;4.474;2022-08-01T01:51:35;2.60;;;1.65;;
36815;SDS011;22760;51.910;4.474;2022-08-01T01:54:03;4.13;;;2.10;;
36815;SDS011;22760;51.910;4.474;2022-08-01T01:56:31;3.22;;;1.90;;
36815;SDS011;22760;51.910;4.474;2022-08-01T01:59:00;3.65;;;2.03;;
36815;SDS011;22760;51.910;4.474;2022-08-01T02:01:31;3.45;;;1.63;;
36815;SDS011;22760;51.910;4.474;2022-08-01T02:04:00;2.78;;;1.98;;
36815;SDS011;22760;51.910;4.474;2022-08-01T02:06:28;3.17;;;1.80;;
36815;SDS011;22760;51.910;4.474;2022-08-01T02:08:57;3.55;;;2.08;;
36815;SDS011;22760;51.910;4.474;2022-08-01T02:11:27;2.60;;;1.80;;
36815;SDS011;22760;51.910;4.474;2022-08-01T02:13:55;2.72;;;1.95;;
36815;SDS011;22760;51.910;4.474;2022-08-01T02:16:25;2.88;;;1.98;;
36815;SDS011;22760;51.910;4.474;2022-08-01T02:18:56;1.83;;;1.73;;
36815;SDS011;22760;51.910;4.474;2022-08-01T02:21:25;4.80;;;2.85;;
36815;SDS011;22760;51.910;4.474;2022-08-01T02:23:57;3.10;;;2.13;;
36815;SDS011;22760;51.910;4.474;2022-08-01T02:26:28;4.40;;;2.60;;
36815;SDS011;22760;51.910;4.474;2022-08-01T02:28:56;5.15;;;2.58;;
36815;SDS011;22760;51.910;4.474;2022-08-01T02:34:00;5.80;;;3.00;;
36815;SDS011;22760;51.910;4.474;2022-08-01T02:36:31;6.32;;;3.55;;
36815;SDS011;22760;51.910;4.474;2022-08-01T02:39:02;7.15;;;3.65;;
36815;SDS011;22760;51.910;4.474;2022-08-01T02:41:32;4.93;;;3.45;;
36815;SDS011;22760;51.910;4.474;2022-08-01T02:44:03;6.38;;;3.17;;
36815;SDS011;22760;51.910;4.474;2022-08-01T02:46:34;6.47;;;3.50;;
36815;SDS011;22760;51.910;4.474;2022-08-01T02:49:04;4.35;;;2.67;;
36815;SDS011;22760;51.910;4.474;2022-08-01T02:51:33;4.38;;;2.97;;
36815;SDS011;22760;51.910;4.474;2022-08-01T02:54:02;4.50;;;2.97;;
36815;SDS011;22760;51.910;4.474;2022-08-01T02:56:31;4.60;;;3.33;;
36815;SDS011;22760;51.910;4.474;2022-08-01T02:59:02;7.43;;;3.47;;
36815;SDS011;22760;51.910;4.474;2022-08-01T03:01:31;4.32;;;3.08;;
36815;SDS011;22760;51.910;4.474;2022-08-01T03:04:00;6.00;;;3.03;;
36815;SDS011;22760;51.910;4.474;2022-08-01T03:06:29;4.22;;;2.70;;
36815;SDS011;22760;51.910;4.474;2022-08-01T03:08:57;3.97;;;3.10;;
36815;SDS011;22760;51.910;4.474;2022-08-01T03:11:26;3.28;;;2.97;;
36815;SDS011;22760;51.910;4.474;2022-08-01T03:13:55;4.88;;;2.50;;
36815;SDS011;22760;51.910;4.474;2022-08-01T03:16:22;4.28;;;2.92;;
36815;SDS011;22760;51.910;4.474;2022-08-01T03:18:51;7.68;;;3.20;;
36815;SDS011;22760;51.910;4.474;2022-08-01T03:21:21;5.78;;;2.38;;
36815;SDS011;22760;51.910;4.474;2022-08-01T03:23:50;6.60;;;2.45;;
36815;SDS011;22760;51.910;4.474;2022-08-01T03:26:22;4.57;;;2.30;;
36815;SDS011;22760;51.910;4.474;2022-08-01T03:28:52;4.82;;;2.47;;
36815;SDS011;22760;51.910;4.474;2022-08-01T03:31:22;3.92;;;2.25;;
36815;SDS011;22760;51.910;4.474;2022-08-01T03:33:50;3.88;;;2.30;;
36815;SDS011;22760;51.910;4.474;2022-08-01T03:36:16;4.15;;;2.00;;
36815;SDS011;22760;51.910;4.474;2022-08-01T03:38:47;3.25;;;2.10;;
36815;SDS011;22760;51.910;4.474;2022-08-01T03:41:18;3.47;;;2.13;;
36815;SDS011;22760;51.910;4.474;2022-08-01T03:43:48;3.80;;;1.90;;
36815;SDS011;22760;51.910;4.474;2022-08-01T03:46:22;4.97;;;2.10;;
36815;SDS011;22760;51.910;4.474;2022-08-01T03:48:56;3.80;;;2.13;;
36815;SDS011;22760;51.910;4.474;2022-08-01T03:51:26;3.28;;;1.90;;
36815;SDS011;22760;51.910;4.474;2022-08-01T03:53:55;3.83;;;1.60;;
36815;SDS011;22760;51.910;4.474;2022-08-01T03:56:26;2.17;;;1.50;;
36815;SDS011;22760;51.910;4.474;2022-08-01T04:01:24;2.45;;;1.58;;
36815;SDS011;22760;51.910;4.474;2022-08-01T04:03:52;1.77;;;1.67;;
36815;SDS011;22760;51.910;4.474;2022-08-01T04:06:19;2.03;;;1.60;;
36815;SDS011;22760;51.910;4.474;2022-08-01T04:08:46;2.10;;;1.52;;
36815;SDS011;22760;51.910;4.474;2022-08-01T04:11:20;4.57;;;2.50;;
36815;SDS011;22760;51.910;4.474;2022-08-01T04:13:49;2.17;;;1.60;;
36815;SDS011;22760;51.910;4.474;2022-08-01T04:16:17;2.10;;;1.58;;
36815;SDS011;22760;51.910;4.474;2022-08-01T04:18:44;4.30;;;1.50;;
36815;SDS011;22760;51.910;4.474;2022-08-01T04:21:11;3.17;;;1.50;;
36815;SDS011;22760;51.910;4.474;2022-08-01T04:23:38;1.33;;;1.23;;
36815;SDS011;22760;51.910;4.474;2022-08-01T04:26:07;2.00;;;1.50;;
36815;SDS011;22760;51.910;4.474;2022-08-01T04:28:36;1.63;;;1.17;;
36815;SDS011;22760;51.910;4.474;2022-08-01T04:31:07;4.68;;;2.20;;
36815;SDS011;22760;51.910;4.474;2022-08-01T04:33:36;3.22;;;1.55;;
36815;SDS011;22760;51.910;4.474;2022-08-01T04:36:06;2.53;;;1.90;;
36815;SDS011;22760;51.910;4.474;2022-08-01T04:38:35;3.28;;;1.80;;
36815;SDS011;22760;51.910;4.474;2022-08-01T04:41:03;1.65;;;1.55;;
36815;SDS011;22760;51.910;4.474;2022-08-01T04:43:32;3.75;;;1.60;;
36815;SDS011;22760;51.910;4.474;2022-08-01T04:45:59;2.83;;;1.65;;
36815;SDS011;22760;51.910;4.474;2022-08-01T04:48:30;3.83;;;1.55;;
36815;SDS011;22760;51.910;4.474;2022-08-01T04:50:58;2.53;;;1.60;;
36815;SDS011;22760;51.910;4.474;2022-08-01T04:53:25;3.63;;;1.63;;
36815;SDS011;22760;51.910;4.474;2022-08-01T04:55:52;2.83;;;1.70;;
36815;SDS011;22760;51.910;4.474;2022-08-01T04:58:20;2.28;;;1.50;;
36815;SDS011;22760;51.910;4.474;2022-08-01T05:00:47;3.60;;;1.58;;
36815;SDS011;22760;51.910;4.474;2022-08-01T05:03:14;3.10;;;1.58;;
36815;SDS011;22760;51.910;4.474;2022-08-01T05:05:42;4.70;;;1.83;;
36815;SDS011;22760;51.910;4.474;2022-08-01T05:08:09;2.22;;;1.73;;
36815;SDS011;22760;51.910;4.474;2022-08-01T05:10:36;1.65;;;1.33;;
36815;SDS011;22760;51.910;4.474;2022-08-01T05:13:02;2.72;;;1.40;;
36815;SDS011;22760;51.910;4.474;2022-08-01T05:15:31;2.88;;;1.88;;
36815;SDS011;22760;51.910;4.474;2022-08-01T05:17:58;2.10;;;1.20;;
36815;SDS011;22760;51.910;4.474;2022-08-01T05:20:24;1.98;;;1.30;;
36815;SDS011;22760;51.910;4.474;2022-08-01T05:22:53;6.50;;;1.55;;
36815;SDS011;22760;51.910;4.474;2022-08-01T05:25:20;4.55;;;1.40;;
36815;SDS011;22760;51.910;4.474;2022-08-01T05:27:48;2.60;;;1.27;;
36815;SDS011;22760;51.910;4.474;2022-08-01T05:30:15;2.53;;;1.63;;
36815;SDS011;22760;51.910;4.474;2022-08-01T05:32:42;2.55;;;1.55;;
36815;SDS011;22760;51.910;4.474;2022-08-01T05:35:09;2.55;;;1.33;;
36815;SDS011;22760;51.910;4.474;2022-08-01T05:37:36;1.90;;;1.58;;
36815;SDS011;22760;51.910;4.474;2022-08-01T05:40:05;5.88;;;2.22;;
36815;SDS011;22760;51.910;4.474;2022-08-01T05:42:32;3.25;;;1.73;;
36815;SDS011;22760;51.910;4.474;2022-08-01T05:44:59;2.20;;;1.38;;
36815;SDS011;22760;51.910;4.474;2022-08-01T05:47:26;1.98;;;1.70;;
36815;SDS011;22760;51.910;4.474;2022-08-01T05:49:52;3.13;;;1.73;;
36815;SDS011;22760;51.910;4.474;2022-08-01T05:52:19;1.55;;;1.35;;
36815;SDS011;22760;51.910;4.474;2022-08-01T05:54:46;2.30;;;1.52;;
36815;SDS011;22760;51.910;4.474;2022-08-01T05:57:14;1.70;;;1.60;;
36815;SDS011;22760;51.910;4.474;2022-08-01T05:59:41;2.65;;;1.75;;
36815;SDS011;22760;51.910;4.474;2022-08-01T06:02:07;3.80;;;1.95;;
36815;SDS011;22760;51.910;4.474;2022-08-01T06:04:34;2.88;;;1.85;;
36815;SDS011;22760;51.910;4.474;2022-08-01T06:07:01;3.45;;;1.80;;
36815;SDS011;22760;51.910;4.474;2022-08-01T06:09:28;3.05;;;2.00;;
36815;SDS011;22760;51.910;4.474;2022-08-01T06:11:55;2.50;;;1.50;;
36815;SDS011;22760;51.910;4.474;2022-08-01T06:14:24;4.30;;;2.33;;
36815;SDS011;22760;51.910;4.474;2022-08-01T06:16:50;2.97;;;1.85;;
36815;SDS011;22760;51.910;4.474;2022-08-01T06:19:17;5.00;;;2.33;;
36815;SDS011;22760;51.910;4.474;2022-08-01T06:21:44;1.70;;;1.60;;
36815;SDS011;22760;51.910;4.474;2022-08-01T06:24:11;2.78;;;1.73;;
36815;SDS011;22760;51.910;4.474;2022-08-01T06:26:37;2.60;;;1.48;;
36815;SDS011;22760;51.910;4.474;2022-08-01T06:29:04;4.22;;;1.50;;
36815;SDS011;22760;51.910;4.474;2022-08-01T06:31:32;1.88;;;1.42;;
36815;SDS011;22760;51.910;4.474;2022-08-01T06:33:59;2.08;;;1.40;;
36815;SDS011;22760;51.910;4.474;2022-08-01T06:36:26;2.08;;;1.40;;
36815;SDS011;22760;51.910;4.474;2022-08-01T06:38:53;3.22;;;1.65;;
36815;SDS011;22760;51.910;4.474;2022-08-01T06:41:19;1.75;;;1.40;;
36815;SDS011;22760;51.910;4.474;2022-08-01T06:43:46;2.25;;;1.63;;
36815;SDS011;22760;51.910;4.474;2022-08-01T06:46:13;3.55;;;1.73;;
36815;SDS011;22760;51.910;4.474;2022-08-01T06:48:41;2.47;;;1.90;;
36815;SDS011;22760;51.910;4.474;2022-08-01T06:51:08;2.67;;;2.10;;
36815;SDS011;22760;51.910;4.474;2022-08-01T06:53:38;3.95;;;1.80;;
36815;SDS011;22760;51.910;4.474;2022-08-01T06:56:05;3.88;;;2.08;;
36815;SDS011;22760;51.910;4.474;2022-08-01T06:58:33;3.83;;;2.08;;
36815;SDS011;22760;51.910;4.474;2022-08-01T07:01:00;5.63;;;2.40;;
36815;SDS011;22760;51.910;4.474;2022-08-01T07:03:28;5.25;;;2.58;;
36815;SDS011;22760;51.910;4.474;2022-08-01T07:05:57;4.30;;;2.30;;
36815;SDS011;22760;51.910;4.474;2022-08-01T07:08:24;5.10;;;3.20;;
36815;SDS011;22760;51.910;4.474;2022-08-01T07:10:50;6.40;;;2.92;;
36815;SDS011;22760;51.910;4.474;2022-08-01T07:13:17;5.00;;;3.33;;
36815;SDS011;22760;51.910;4.474;2022-08-01T07:15:46;6.38;;;3.38;;
36815;SDS011;22760;51.910;4.474;2022-08-01T07:18:13;6.95;;;3.60;;
36815;SDS011;22760;51.910;4.474;2022-08-01T07:20:39;4.72;;;3.53;;
36815;SDS011;22760;51.910;4.474;2022-08-01T07:23:08;9.10;;;4.18;;
36815;SDS011;22760;51.910;4.474;2022-08-01T07:25:34;6.75;;;4.13;;
36815;SDS011;22760;51.910;4.474;2022-08-01T07:28:01;8.05;;;4.40;;
36815;SDS011;22760;51.910;4.474;2022-08-01T07:30:28;7.60;;;4.18;;
36815;SDS011;22760;51.910;4.474;2022-08-01T07:32:55;13.98;;;5.20;;
36815;SDS011;22760;51.910;4.474;2022-08-01T07:35:22;10.30;;;3.92;;
36815;SDS011;22760;51.910;4.474;2022-08-01T07:37:49;9.48;;;3.92;;
36815;SDS011;22760;51.910;4.474;2022-08-01T07:40:17;15.32;;;4.60;;
36815;SDS011;22760;51.910;4.474;2022-08-01T07:42:45;19.17;;;5.38;;
36815;SDS011;22760;51.910;4.474;2022-08-01T07:45:12;15.05;;;4.95;;
36815;SDS011;22760;51.910;4.474;2022-08-01T07:47:40;17.75;;;5.13;;
36815;SDS011;22760;51.910;4.474;2022-08-01T07:50:07;12.43;;;4.78;;
36815;SDS011;22760;51.910;4.474;2022-08-01T07:52:34;14.57;;;5.50;;
36815;SDS011;22760;51.910;4.474;2022-08-01T07:55:01;16.70;;;5.35;;
36815;SDS011;22760;51.910;4.474;2022-08-01T07:57:29;14.90;;;5.32;;
36815;SDS011;22760;51.910;4.474;2022-08-01T07:59:56;15.30;;;6.18;;
36815;SDS011;22760;51.910;4.474;2022-08-01T08:02:23;19.58;;;5.82;;
36815;SDS011;22760;51.910;4.474;2022-08-01T08:04:49;17.42;;;5.95;;
36815;SDS011;22760;51.910;4.474;2022-08-01T08:07:16;18.65;;;6.70;;
36815;SDS011;22760;51.910;4.474;2022-08-01T08:09:43;18.08;;;5.35;;
36815;SDS011;22760;51.910;4.474;2022-08-01T08:12:10;15.80;;;6.32;;
36815;SDS011;22760;51.910;4.474;2022-08-01T08:14:38;15.95;;;6.60;;
36815;SDS011;22760;51.910;4.474;2022-08-01T08:17:05;14.25;;;5.22;;
36815;SDS011;22760;51.910;4.474;2022-08-01T08:19:32;20.30;;;6.75;;
36815;SDS011;22760;51.910;4.474;2022-08-01T08:22:02;12.00;;;5.72;;
36815;SDS011;22760;51.910;4.474;2022-08-01T08:24:29;20.58;;;5.90;;
36815;SDS011;22760;51.910;4.474;2022-08-01T08:26:56;25.55;;;6.55;;
36815;SDS011;22760;51.910;4.474;2022-08-01T08:29:24;12.15;;;5.15;;
36815;SDS011;22760;51.910;4.474;2022-08-01T08:31:53;16.42;;;5.25;;
36815;SDS011;22760;51.910;4.474;2022-08-01T08:34:20;15.20;;;5.38;;
36815;SDS011;22760;51.910;4.474;2022-08-01T08:36:47;15.02;;;4.90;;
36815;SDS011;22760;51.910;4.474;2022-08-01T08:39:15;16.08;;;4.68;;
36815;SDS011;22760;51.910;4.474;2022-08-01T08:41:42;18.80;;;4.53;;
36815;SDS011;22760;51.910;4.474;2022-08-01T08:44:09;13.85;;;4.10;;
36815;SDS011;22760;51.910;4.474;2022-08-01T08:46:39;18.75;;;5.30;;
36815;SDS011;22760;51.910;4.474;2022-08-01T08:49:09;18.67;;;4.53;;
36815;SDS011;22760;51.910;4.474;2022-08-01T08:51:38;16.92;;;4.45;;
36815;SDS011;22760;51.910;4.474;2022-08-01T08:54:06;18.23;;;4.15;;
36815;SDS011;22760;51.910;4.474;2022-08-01T08:56:34;14.95;;;4.05;;
36815;SDS011;22760;51.910;4.474;2022-08-01T08:59:02;10.55;;;3.60;;
36815;SDS011;22760;51.910;4.474;2022-08-01T09:01:30;15.20;;;4.00;;
36815;SDS011;22760;51.910;4.474;2022-08-01T09:03:59;18.98;;;4.82;;
36815;SDS011;22760;51.910;4.474;2022-08-01T09:06:28;16.42;;;4.13;;
36815;SDS011;22760;51.910;4.474;2022-08-01T09:08:55;11.10;;;3.22;;
36815;SDS011;22760;51.910;4.474;2022-08-01T09:11:22;9.70;;;2.90;;
36815;SDS011;22760;51.910;4.474;2022-08-01T09:14:01;17.45;;;3.35;;
36815;SDS011;22760;51.910;4.474;2022-08-01T09:16:33;15.95;;;3.50;;
36815;SDS011;22760;51.910;4.474;2022-08-01T09:19:08;13.50;;;3.22;;
36815;SDS011;22760;51.910;4.474;2022-08-01T09:21:38;15.57;;;3.63;;
36815;SDS011;22760;51.910;4.474;2022-08-01T09:24:15;13.43;;;3.80;;
36815;SDS011;22760;51.910;4.474;2022-08-01T09:26:42;9.85;;;2.60;;
36815;SDS011;22760;51.910;4.474;2022-08-01T09:29:17;9.18;;;2.58;;
36815;SDS011;22760;51.910;4.474;2022-08-01T09:31:46;11.20;;;2.80;;
36815;SDS011;22760;51.910;4.474;2022-08-01T09:34:14;9.75;;;2.13;;
36815;SDS011;22760;51.910;4.474;2022-08-01T09:36:49;7.97;;;2.25;;
36815;SDS011;22760;51.910;4.474;2022-08-01T09:39:19;13.70;;;4.25;;
36815;SDS011;22760;51.910;4.474;2022-08-01T09:41:47;12.98;;;3.28;;
36815;SDS011;22760;51.910;4.474;2022-08-01T09:44:15;9.80;;;2.38;;
36815;SDS011;22760;51.910;4.474;2022-08-01T09:46:50;6.13;;;2.42;;
36815;SDS011;22760;51.910;4.474;2022-08-01T09:49:26;8.32;;;2.42;;
36815;SDS011;22760;51.910;4.474;2022-08-01T09:51:56;9.70;;;2.72;;
36815;SDS011;22760;51.910;4.474;2022-08-01T09:54:30;10.77;;;2.33;;
36815;SDS011;22760;51.910;4.474;2022-08-01T09:57:08;10.00;;;2.30;;
36815;SDS011;22760;51.910;4.474;2022-08-01T09:59:37;11.63;;;2.13;;
36815;SDS011;22760;51.910;4.474;2022-08-01T10:02:07;10.18;;;2.20;;
36815;SDS011;22760;51.910;4.474;2022-08-01T10:04:35;8.00;;;2.28;;
36815;SDS011;22760;51.910;4.474;2022-08-01T10:07:06;8.77;;;2.10;;
36815;SDS011;22760;51.910;4.474;2022-08-01T10:09:34;8.23;;;1.80;;
36815;SDS011;22760;51.910;4.474;2022-08-01T10:12:02;7.68;;;2.00;;
36815;SDS011;22760;51.910;4.474;2022-08-01T10:14:30;8.02;;;1.80;;
36815;SDS011;22760;51.910;4.474;2022-08-01T10:16:58;9.63;;;2.38;;
36815;SDS011;22760;51.910;4.474;2022-08-01T10:19:27;9.77;;;2.20;;
36815;SDS011;22760;51.910;4.474;2022-08-01T10:21:55;9.35;;;2.33;;
36815;SDS011;22760;51.910;4.474;2022-08-01T10:24:25;11.60;;;2.83;;
36815;SDS011;22760;51.910;4.474;2022-08-01T10:26:55;9.98;;;2.00;;
36815;SDS011;22760;51.910;4.474;2022-08-01T10:29:27;5.40;;;1.77;;
36815;SDS011;22760;51.910;4.474;2022-08-01T10:31:56;8.32;;;2.05;;
36815;SDS011;22760;51.910;4.474;2022-08-01T10:34:23;7.15;;;2.15;;
36815;SDS011;22760;51.910;4.474;2022-08-01T10:36:50;4.32;;;1.60;;
36815;SDS011;22760;51.910;4.474;2022-08-01T10:39:17;7.15;;;1.63;;
36815;SDS011;22760;51.910;4.474;2022-08-01T10:41:46;7.40;;;1.65;;
36815;SDS011;22760;51.910;4.474;2022-08-01T10:44:12;6.50;;;1.80;;
36815;SDS011;22760;51.910;4.474;2022-08-01T10:46:42;12.52;;;2.22;;
36815;SDS011;22760;51.910;4.474;2022-08-01T10:49:13;8.63;;;2.10;;
36815;SDS011;22760;51.910;4.474;2022-08-01T10:51:41;8.50;;;1.55;;
36815;SDS011;22760;51.910;4.474;2022-08-01T10:54:09;8.70;;;1.80;;
36815;SDS011;22760;51.910;4.474;2022-08-01T10:56:38;6.20;;;1.50;;
36815;SDS011;22760;51.910;4.474;2022-08-01T10:59:07;7.22;;;1.58;;
36815;SDS011;22760;51.910;4.474;2022-08-01T11:01:34;10.57;;;2.45;;
36815;SDS011;22760;51.910;4.474;2022-08-01T11:04:03;9.07;;;2.47;;
36815;SDS011;22760;51.910;4.474;2022-08-01T11:06:42;4.53;;;1.85;;
36815;SDS011;22760;51.910;4.474;2022-08-01T11:09:23;9.05;;;2.15;;
36815;SDS011;22760;51.910;4.474;2022-08-01T11:12:02;8.98;;;2.42;;
36815;SDS011;22760;51.910;4.474;2022-08-01T11:15:15;12.25;;;2.40;;
36815;SDS011;22760;51.910;4.474;2022-08-01T11:17:41;10.85;;;2.20;;
36815;SDS011;22760;51.910;4.474;2022-08-01T11:20:12;7.40;;;2.10;;
36815;SDS011;22760;51.910;4.474;2022-08-01T11:28:36;8.77;;;2.13;;
36815;SDS011;22760;51.910;4.474;2022-08-01T11:33:54;10.18;;;2.60;;
36815;SDS011;22760;51.910;4.474;2022-08-01T11:36:21;6.57;;;1.75;;
36815;SDS011;22760;51.910;4.474;2022-08-01T11:38:49;6.15;;;1.60;;
36815;SDS011;22760;51.910;4.474;2022-08-01T11:41:37;6.63;;;1.85;;
36815;SDS011;22760;51.910;4.474;2022-08-01T11:44:05;9.05;;;2.70;;
36815;SDS011;22760;51.910;4.474;2022-08-01T11:46:50;17.05;;;6.03;;
36815;SDS011;22760;51.910;4.474;2022-08-01T11:49:27;10.52;;;3.03;;
36815;SDS011;22760;51.910;4.474;2022-08-01T11:51:58;8.25;;;2.80;;
36815;SDS011;22760;51.910;4.474;2022-08-01T11:54:30;6.38;;;2.33;;
36815;SDS011;22760;51.910;4.474;2022-08-01T11:56:58;11.82;;;2.78;;
36815;SDS011;22760;51.910;4.474;2022-08-01T11:59:25;8.93;;;2.20;;
36815;SDS011;22760;51.910;4.474;2022-08-01T12:01:53;6.70;;;1.35;;
36815;SDS011;22760;51.910;4.474;2022-08-01T12:04:20;6.00;;;2.15;;
36815;SDS011;22760;51.910;4.474;2022-08-01T12:06:47;7.20;;;2.45;;
36815;SDS011;22760;51.910;4.474;2022-08-01T12:09:14;7.95;;;1.90;;
36815;SDS011;22760;51.910;4.474;2022-08-01T12:11:42;6.10;;;1.95;;
36815;SDS011;22760;51.910;4.474;2022-08-01T12:14:09;5.60;;;2.40;;
36815;SDS011;22760;51.910;4.474;2022-08-01T12:16:47;6.68;;;1.85;;
36815;SDS011;22760;51.910;4.474;2022-08-01T12:19:19;4.88;;;1.38;;
36815;SDS011;22760;51.910;4.474;2022-08-01T12:24:35;6.70;;;1.73;;
36815;SDS011;22760;51.910;4.474;2022-08-01T12:27:03;4.60;;;1.20;;
36815;SDS011;22760;51.910;4.474;2022-08-01T12:29:32;7.22;;;2.28;;
36815;SDS011;22760;51.910;4.474;2022-08-01T12:32:00;6.03;;;1.88;;
36815;SDS011;22760;51.910;4.474;2022-08-01T12:34:29;6.32;;;1.13;;
36815;SDS011;22760;51.910;4.474;2022-08-01T12:36:59;6.53;;;1.75;;
36815;SDS011;22760;51.910;4.474;2022-08-01T12:39:31;6.95;;;1.75;;
36815;SDS011;22760;51.910;4.474;2022-08-01T12:41:58;3.88;;;1.55;;
36815;SDS011;22760;51.910;4.474;2022-08-01T12:44:25;9.07;;;1.60;;
36815;SDS011;22760;51.910;4.474;2022-08-01T12:46:54;8.48;;;2.30;;
36815;SDS011;22760;51.910;4.474;2022-08-01T12:49:22;8.25;;;1.80;;
36815;SDS011;22760;51.910;4.474;2022-08-01T12:51:51;6.85;;;1.92;;
36815;SDS011;22760;51.910;4.474;2022-08-01T12:54:18;9.48;;;2.00;;
36815;SDS011;22760;51.910;4.474;2022-08-01T12:56:45;5.88;;;1.80;;
36815;SDS011;22760;51.910;4.474;2022-08-01T12:59:21;6.47;;;1.77;;
36815;SDS011;22760;51.910;4.474;2022-08-01T13:01:50;6.70;;;1.75;;
36815;SDS011;22760;51.910;4.474;2022-08-01T13:04:17;6.93;;;1.52;;
36815;SDS011;22760;51.910;4.474;2022-08-01T13:06:45;6.60;;;1.70;;
36815;SDS011;22760;51.910;4.474;2022-08-01T13:09:13;6.80;;;1.52;;
36815;SDS011;22760;51.910;4.474;2022-08-01T13:11:40;6.95;;;1.65;;
36815;SDS011;22760;51.910;4.474;2022-08-01T13:14:08;6.28;;;1.80;;
36815;SDS011;22760;51.910;4.474;2022-08-01T13:16:45;7.30;;;2.30;;
36815;SDS011;22760;51.910;4.474;2022-08-01T13:19:13;5.97;;;1.60;;
36815;SDS011;22760;51.910;4.474;2022-08-01T13:21:40;6.00;;;1.70;;
36815;SDS011;22760;51.910;4.474;2022-08-01T13:24:25;7.65;;;1.40;;
36815;SDS011;22760;51.910;4.474;2022-08-01T13:26:53;6.32;;;1.50;;
36815;SDS011;22760;51.910;4.474;2022-08-01T13:29:31;5.90;;;1.73;;
36815;SDS011;22760;51.910;4.474;2022-08-01T13:31:59;3.58;;;1.40;;
36815;SDS011;22760;51.910;4.474;2022-08-01T13:34:29;4.50;;;1.48;;
36815;SDS011;22760;51.910;4.474;2022-08-01T13:36:56;4.65;;;1.33;;
36815;SDS011;22760;51.910;4.474;2022-08-01T13:39:23;5.47;;;1.30;;
36815;SDS011;22760;51.910;4.474;2022-08-01T13:42:11;4.68;;;1.30;;
36815;SDS011;22760;51.910;4.474;2022-08-01T13:44:39;6.57;;;2.03;;
36815;SDS011;22760;51.910;4.474;2022-08-01T13:47:06;4.03;;;1.27;;
36815;SDS011;22760;51.910;4.474;2022-08-01T13:49:34;6.68;;;1.70;;
36815;SDS011;22760;51.910;4.474;2022-08-01T13:52:01;4.53;;;1.58;;
36815;SDS011;22760;51.910;4.474;2022-08-01T13:54:28;6.68;;;1.60;;
36815;SDS011;22760;51.910;4.474;2022-08-01T13:56:56;5.15;;;1.33;;
36815;SDS011;22760;51.910;4.474;2022-08-01T13:59:24;6.78;;;1.42;;
36815;SDS011;22760;51.910;4.474;2022-08-01T14:01:51;4.85;;;1.60;;
36815;SDS011;22760;51.910;4.474;2022-08-01T14:04:18;4.72;;;1.40;;
36815;SDS011;22760;51.910;4.474;2022-08-01T14:06:46;6.05;;;1.80;;
36815;SDS011;22760;51.910;4.474;2022-08-01T14:09:13;7.88;;;1.60;;
36815;SDS011;22760;51.910;4.474;2022-08-01T14:11:41;5.97;;;1.60;;
36815;SDS011;22760;51.910;4.474;2022-08-01T14:14:08;5.60;;;1.25;;
36815;SDS011;22760;51.910;4.474;2022-08-01T14:16:36;7.55;;;1.58;;
36815;SDS011;22760;51.910;4.474;2022-08-01T14:19:04;4.13;;;1.33;;
36815;SDS011;22760;51.910;4.474;2022-08-01T14:21:31;2.92;;;1.38;;
36815;SDS011;22760;51.910;4.474;2022-08-01T14:23:57;3.80;;;1.15;;
36815;SDS011;22760;51.910;4.474;2022-08-01T14:26:24;6.03;;;1.60;;
36815;SDS011;22760;51.910;4.474;2022-08-01T14:28:51;7.72;;;1.63;;
36815;SDS011;22760;51.910;4.474;2022-08-01T14:31:18;5.93;;;1.73;;
36815;SDS011;22760;51.910;4.474;2022-08-01T14:33:46;3.78;;;1.38;;
36815;SDS011;22760;51.910;4.474;2022-08-01T14:36:13;5.18;;;1.70;;
36815;SDS011;22760;51.910;4.474;2022-08-01T14:38:39;3.65;;;1.52;;
36815;SDS011;22760;51.910;4.474;2022-08-01T14:41:06;4.22;;;1.48;;
36815;SDS011;22760;51.910;4.474;2022-08-01T14:43:33;4.72;;;1.27;;
36815;SDS011;22760;51.910;4.474;2022-08-01T14:46:00;3.53;;;1.52;;
36815;SDS011;22760;51.910;4.474;2022-08-01T14:48:28;2.95;;;1.35;;
36815;SDS011;22760;51.910;4.474;2022-08-01T14:50:56;6.57;;;1.85;;
36815;SDS011;22760;51.910;4.474;2022-08-01T14:53:24;9.80;;;1.52;;
36815;SDS011;22760;51.910;4.474;2022-08-01T14:55:51;4.00;;;1.48;;
36815;SDS011;22760;51.910;4.474;2022-08-01T14:58:17;8.98;;;1.58;;
36815;SDS011;22760;51.910;4.474;2022-08-01T15:00:44;2.65;;;1.17;;
36815;SDS011;22760;51.910;4.474;2022-08-01T15:03:11;4.72;;;1.23;;
36815;SDS011;22760;51.910;4.474;2022-08-01T15:05:38;5.20;;;1.55;;
36815;SDS011;22760;51.910;4.474;2022-08-01T15:08:07;5.05;;;1.48;;
36815;SDS011;22760;51.910;4.474;2022-08-01T15:10:34;6.43;;;1.40;;
36815;SDS011;22760;51.910;4.474;2022-08-01T15:13:01;5.35;;;1.52;;
36815;SDS011;22760;51.910;4.474;2022-08-01T15:15:27;3.75;;;1.30;;